Time;durP1;ratioP1;P1;durP2;ratioP2;P2;SDS_P1;SDS_P2;PMS_P1;PMS_P2;Temp;Humidity;BMP_temperature;BMP_pressure;BME280_temperature;BME280_humidity;BME280_pressure;Samples;Min_cycle;Max_cycle;Signal;HPM_P1;HPM_P2
2023/06/06 00:00:39;;;;;;;9.23;6.17;;;18.20;99.90;;;;;;5091838;28;20028;-73
2023/06/06 00:03:05;;;;;;;8.52;5.88;;;18.20;99.90;;;;;;5073769;28;20036;-72
2023/06/06 00:05:33;;;;;;;14.90;6.23;;;18.30;99.90;;;;;;5086894;28;20456;-72
2023/06/06 00:07:59;;;;;;;9.75;6.32;;;18.40;99.90;;;;;;5065110;28;20766;-74
2023/06/06 00:10:25;;;;;;;14.77;6.30;;;18.30;99.90;;;;;;5091289;28;20033;-74
2023/06/06 00:12:52;;;;;;;9.52;6.13;;;18.20;99.90;;;;;;5081807;28;20048;-75
2023/06/06 00:15:19;;;;;;;16.75;7.10;;;18.20;99.90;;;;;;5085375;28;20019;-75
2023/06/06 00:17:45;;;;;;;;;;;18.30;99.90;;;;;;5072103;28;20556;-73
2023/06/06 00:20:12;;;;;;;10.68;6.45;;;18.30;99.90;;;;;;5089706;28;19952;-74
2023/06/06 00:22:39;;;;;;;13.73;6.47;;;18.20;99.90;;;;;;5074115;28;20112;-74
2023/06/06 00:25:06;;;;;;;11.38;6.70;;;18.20;99.90;;;;;;5088052;28;20446;-73
2023/06/06 00:27:33;;;;;;;9.07;6.72;;;18.30;99.90;;;;;;5091178;28;20040;-72
2023/06/06 00:29:58;;;;;;;10.98;5.90;;;18.20;99.90;;;;;;5082650;28;20307;-74
2023/06/06 00:32:25;;;;;;;8.27;6.30;;;18.20;99.90;;;;;;5087369;28;20039;-74
2023/06/06 00:34:50;;;;;;;9.68;6.45;;;18.20;99.90;;;;;;5093762;28;20496;-72
2023/06/06 00:37:16;;;;;;;7.13;5.73;;;18.30;99.90;;;;;;5093958;28;20024;-74
2023/06/06 00:39:42;;;;;;;10.73;5.70;;;18.20;99.90;;;;;;5086101;28;20491;-73
2023/06/06 00:42:08;;;;;;;6.85;5.80;;;18.40;99.90;;;;;;5092260;28;20031;-74
2023/06/06 00:44:33;;;;;;;8.50;5.83;;;18.30;99.90;;;;;;5094648;28;20503;-73
2023/06/06 00:46:59;;;;;;;9.70;6.10;;;18.40;99.90;;;;;;5085090;28;20375;-75
2023/06/06 00:49:26;;;;;;;11.73;5.93;;;18.50;99.90;;;;;;5088857;28;20484;-73
2023/06/06 00:51:52;;;;;;;10.50;5.85;;;18.60;99.90;;;;;;5092511;28;20081;-74
2023/06/06 00:54:18;;;;;;;11.75;5.90;;;18.50;99.90;;;;;;5075250;28;20028;-74
2023/06/06 00:56:44;;;;;;;;;;;18.50;99.90;;;;;;5084803;28;20112;-74
2023/06/06 00:59:11;;;;;;;8.80;5.18;;;18.50;99.90;;;;;;5096828;28;20645;-72
2023/06/06 01:01:38;;;;;;;;;;;18.60;99.90;;;;;;5093590;28;20035;-73
2023/06/06 01:04:08;;;;;;;6.82;5.43;;;18.50;99.90;;;;;;5096429;28;19908;-73
2023/06/06 01:06:35;;;;;;;11.70;6.32;;;18.40;99.90;;;;;;5090790;28;20040;-73
2023/06/06 01:09:04;;;;;;;8.65;5.95;;;18.30;99.90;;;;;;5095795;28;20044;-73
2023/06/06 01:11:44;;;;;;;7.57;5.15;;;18.40;99.90;;;;;;5088827;28;20515;-74
2023/06/06 01:14:31;;;;;;;7.35;5.57;;;18.40;99.90;;;;;;5089029;28;20380;-73
2023/06/06 01:16:59;;;;;;;12.85;5.93;;;18.40;99.90;;;;;;5087017;28;20029;-73
2023/06/06 01:19:29;;;;;;;8.23;5.88;;;18.40;99.90;;;;;;5091299;28;20031;-74
2023/06/06 01:21:56;;;;;;;7.00;6.00;;;18.40;99.90;;;;;;5066343;28;20123;-73
2023/06/06 01:24:22;;;;;;;11.63;6.53;;;18.50;99.90;;;;;;5072564;28;20070;-72
2023/06/06 01:26:48;;;;;;;8.68;5.72;;;18.30;99.90;;;;;;5070987;28;20031;-74
2023/06/06 01:29:13;;;;;;;9.57;5.70;;;18.40;99.90;;;;;;5096270;28;20415;-72
2023/06/06 01:31:47;;;;;;;8.63;5.90;;;18.40;99.90;;;;;;5079284;28;20114;-72
2023/06/06 01:34:32;;;;;;;7.80;5.60;;;18.30;99.90;;;;;;5096095;28;20027;-72
2023/06/06 01:37:19;;;;;;;8.63;5.80;;;18.30;99.90;;;;;;5081258;28;20028;-75
2023/06/06 01:39:47;;;;;;;11.40;5.60;;;18.40;99.90;;;;;;5086156;28;20499;-75
2023/06/06 01:42:15;;;;;;;8.60;5.55;;;18.40;99.90;;;;;;5092525;28;20488;-76
2023/06/06 01:44:43;;;;;;;7.03;5.38;;;18.40;99.90;;;;;;5086425;28;20040;-76
2023/06/06 01:47:09;;;;;;;15.55;6.13;;;18.40;99.90;;;;;;5082622;28;20032;-75
2023/06/06 01:49:36;;;;;;;10.68;5.85;;;18.30;99.90;;;;;;5077710;28;20062;-75
2023/06/06 01:52:02;;;;;;;9.15;6.28;;;18.20;99.90;;;;;;5065533;28;20039;-75
2023/06/06 01:54:28;;;;;;;9.15;6.53;;;18.10;99.90;;;;;;5064593;28;20028;-73
2023/06/06 01:56:54;;;;;;;;;;;18.20;99.90;;;;;;5082123;28;20127;-74
2023/06/06 01:59:20;;;;;;;12.10;6.93;;;18.00;99.90;;;;;;5097550;27;20423;-75
2023/06/06 02:01:46;;;;;;;13.95;6.78;;;18.00;99.90;;;;;;5083170;28;20574;-74
2023/06/06 02:04:11;;;;;;;11.17;6.93;;;18.10;99.90;;;;;;5084144;28;20067;-75
2023/06/06 02:06:38;;;;;;;9.47;6.00;;;18.10;99.90;;;;;;5084171;28;20079;-75
2023/06/06 02:09:04;;;;;;;9.00;6.45;;;18.20;99.90;;;;;;5070545;28;20040;-74
2023/06/06 02:11:29;;;;;;;10.03;6.47;;;18.00;99.90;;;;;;5087224;28;20078;-75
2023/06/06 02:13:57;;;;;;;9.83;6.70;;;17.80;99.90;;;;;;5067940;28;20059;-75
2023/06/06 02:16:23;;;;;;;11.52;6.65;;;17.90;99.90;;;;;;5077630;28;20039;-75
2023/06/06 02:18:49;;;;;;;;;;;18.10;99.90;;;;;;5086085;28;20051;-75
2023/06/06 02:21:15;;;;;;;7.40;5.82;;;18.10;99.90;;;;;;5068490;28;19955;-75
2023/06/06 02:23:40;;;;;;;7.67;6.03;;;18.10;99.90;;;;;;5077333;28;20206;-74
2023/06/06 02:26:06;;;;;;;12.67;7.70;;;18.20;99.90;;;;;;5083538;28;20842;-75
2023/06/06 02:28:31;;;;;;;12.80;8.47;;;17.90;99.90;;;;;;5087909;28;20047;-74
2023/06/06 02:30:57;;;;;;;13.03;8.40;;;17.80;99.90;;;;;;5080391;28;20038;-73
2023/06/06 02:33:23;;;;;;;11.83;8.13;;;17.70;99.90;;;;;;5083986;28;20042;-74
2023/06/06 02:35:50;;;;;;;16.57;8.80;;;17.70;99.90;;;;;;5066194;28;20034;-73
2023/06/06 02:38:16;;;;;;;17.23;8.50;;;17.60;99.90;;;;;;5051919;28;20027;-73
2023/06/06 02:40:42;;;;;;;20.67;8.85;;;17.70;99.90;;;;;;5085389;28;20027;-72
2023/06/06 02:43:07;;;;;;;13.52;8.93;;;17.70;99.90;;;;;;5080460;28;20144;-73
2023/06/06 02:45:34;;;;;;;22.57;8.80;;;17.60;99.90;;;;;;5085732;28;20559;-74
2023/06/06 02:48:00;;;;;;;;;;;17.50;99.90;;;;;;5087582;28;20028;-75
2023/06/06 02:50:28;;;;;;;16.50;9.18;;;17.50;99.90;;;;;;5066583;28;20267;-73
2023/06/06 02:52:55;;;;;;;16.50;8.82;;;17.50;99.90;;;;;;5088670;28;20543;-74
2023/06/06 02:55:20;;;;;;;14.35;8.43;;;17.40;99.90;;;;;;5083784;28;20034;-74
2023/06/06 02:57:46;;;;;;;26.07;9.17;;;17.30;99.90;;;;;;5082966;28;20906;-74
2023/06/06 03:00:12;;;;;;;16.80;8.50;;;17.20;99.90;;;;;;5081301;28;20024;-75
2023/06/06 03:02:38;;;;;;;19.33;8.70;;;17.20;99.90;;;;;;5086938;28;20036;-73
2023/06/06 03:05:04;;;;;;;21.10;8.23;;;17.20;99.90;;;;;;5087322;28;20036;-72
2023/06/06 03:07:30;;;;;;;14.15;8.50;;;17.00;99.90;;;;;;5079107;28;20043;-72
2023/06/06 03:09:56;;;;;;;19.23;8.63;;;17.00;99.90;;;;;;5084785;28;20556;-73
2023/06/06 03:12:21;;;;;;;13.07;8.13;;;17.10;99.90;;;;;;5077438;28;20024;-74
2023/06/06 03:14:47;;;;;;;23.10;8.10;;;17.10;99.90;;;;;;5080738;28;20604;-73
2023/06/06 03:17:13;;;;;;;15.13;7.97;;;17.10;99.90;;;;;;5088205;28;20055;-74
2023/06/06 03:19:38;;;;;;;13.23;8.07;;;17.00;99.90;;;;;;5080629;28;20395;-75
2023/06/06 03:22:05;;;;;;;10.47;8.57;;;17.00;99.90;;;;;;5081872;28;20059;-74
2023/06/06 03:24:33;;;;;;;15.95;8.80;;;17.00;99.90;;;;;;5077370;28;20028;-72
2023/06/06 03:27:00;;;;;;;14.10;8.52;;;17.00;99.90;;;;;;5083906;28;20078;-74
2023/06/06 03:29:25;;;;;;;13.65;8.57;;;16.90;99.90;;;;;;5082086;28;20081;-74
2023/06/06 03:31:51;;;;;;;30.83;11.63;;;16.90;99.90;;;;;;5075586;28;20040;-74
2023/06/06 03:34:16;;;;;;;20.13;8.70;;;16.90;99.90;;;;;;5083450;28;20210;-74
2023/06/06 03:36:42;;;;;;;15.93;8.00;;;16.90;99.90;;;;;;5087628;28;20037;-74
2023/06/06 03:39:07;;;;;;;12.47;8.93;;;16.80;99.90;;;;;;5084664;28;20112;-72
2023/06/06 03:41:33;;;;;;;14.40;8.97;;;16.80;99.90;;;;;;5088420;28;20739;-72
2023/06/06 03:44:00;;;;;;;13.17;8.67;;;16.90;99.90;;;;;;5087654;28;20036;-73
2023/06/06 03:46:25;;;;;;;12.07;8.05;;;16.80;99.90;;;;;;5082313;28;20791;-74
2023/06/06 03:48:51;;;;;;;10.40;8.17;;;16.80;99.90;;;;;;5077734;28;20044;-76
2023/06/06 03:51:17;;;;;;;17.63;9.13;;;16.70;99.90;;;;;;5084899;28;20024;-75
2023/06/06 03:53:43;;;;;;;13.52;9.82;;;16.70;99.90;;;;;;5079904;28;20400;-75
2023/06/06 03:56:08;;;;;;;20.50;9.67;;;16.80;99.90;;;;;;5074691;28;20036;-74
2023/06/06 03:58:36;;;;;;;14.87;8.47;;;16.70;99.90;;;;;;5080039;28;20414;-75
2023/06/06 04:01:01;;;;;;;15.00;8.98;;;16.70;99.90;;;;;;5079931;28;20043;-74
2023/06/06 04:03:27;;;;;;;9.90;7.87;;;16.60;99.90;;;;;;5077668;28;20029;-72
2023/06/06 04:05:53;;;;;;;15.93;9.20;;;16.60;99.90;;;;;;5084279;28;20032;-71
2023/06/06 04:08:19;;;;;;;18.67;9.45;;;16.60;99.90;;;;;;5086044;28;20819;-74
2023/06/06 04:10:45;;;;;;;13.18;8.88;;;16.50;99.90;;;;;;5083539;28;20039;-74
2023/06/06 04:13:11;;;;;;;20.17;9.43;;;16.50;99.90;;;;;;5077714;28;20085;-74
2023/06/06 04:15:36;;;;;;;19.33;9.20;;;16.50;99.90;;;;;;5081193;28;20028;-74
2023/06/06 04:18:03;;;;;;;14.47;8.80;;;16.50;99.90;;;;;;5078547;28;20280;-74
2023/06/06 04:20:32;;;;;;;;;;;16.60;99.90;;;;;;5086832;28;20032;-73
2023/06/06 04:23:00;;;;;;;15.02;8.52;;;16.50;99.90;;;;;;5091609;28;19950;-73
2023/06/06 04:25:26;;;;;;;9.93;8.57;;;16.40;99.90;;;;;;5083342;28;20487;-74
2023/06/06 04:27:52;;;;;;;15.75;9.52;;;16.40;99.90;;;;;;5085375;28;20085;-74
2023/06/06 04:30:22;;;;;;;14.87;8.87;;;16.40;99.90;;;;;;5060934;28;20044;-74
2023/06/06 04:32:52;;;;;;;14.18;9.25;;;16.50;99.90;;;;;;5076531;28;20039;-74
2023/06/06 04:35:18;;;;;;;13.32;9.00;;;16.50;99.90;;;;;;5080741;28;20111;-74
2023/06/06 04:37:47;;;;;;;17.05;9.35;;;16.60;99.90;;;;;;5079244;28;20140;-74
2023/06/06 04:40:13;;;;;;;15.20;8.88;;;16.60;99.90;;;;;;5083242;28;20110;-73
2023/06/06 04:42:39;;;;;;;20.97;8.80;;;16.70;99.90;;;;;;5076977;28;20155;-75
2023/06/06 04:45:06;;;;;;;;;;;16.60;99.90;;;;;;5084218;28;20027;-72
2023/06/06 04:47:32;;;;;;;17.58;10.10;;;16.70;99.90;;;;;;5060958;28;20376;-74
2023/06/06 04:49:58;;;;;;;16.02;9.18;;;16.70;99.90;;;;;;5079165;28;20052;-74
2023/06/06 04:52:24;;;;;;;12.15;8.95;;;16.60;99.90;;;;;;5077894;28;20028;-74
2023/06/06 04:54:51;;;;;;;17.73;9.23;;;16.50;99.90;;;;;;5080861;28;20063;-73
2023/06/06 04:57:19;;;;;;;19.65;8.10;;;16.70;99.90;;;;;;5079258;28;20032;-74
2023/06/06 04:59:51;;;;;;;13.98;8.82;;;16.80;99.90;;;;;;5074422;28;20036;-75
2023/06/06 05:02:20;;;;;;;14.52;9.45;;;17.00;99.90;;;;;;5077856;28;20388;-74
2023/06/06 05:04:48;;;;;;;11.57;9.35;;;17.00;99.90;;;;;;5079969;28;20079;-75
2023/06/06 05:07:14;;;;;;;18.60;9.50;;;17.00;99.90;;;;;;5080783;28;20015;-74
2023/06/06 05:09:39;;;;;;;16.00;9.53;;;17.10;99.90;;;;;;5089127;28;20066;-72
2023/06/06 05:12:05;;;;;;;16.97;9.33;;;17.20;99.90;;;;;;5076684;28;20033;-74
2023/06/06 05:14:31;;;;;;;17.77;9.48;;;17.40;99.90;;;;;;5085895;28;20064;-72
2023/06/06 05:16:57;;;;;;;16.37;8.90;;;17.50;99.90;;;;;;5082664;28;20024;-74
2023/06/06 05:19:23;;;;;;;18.35;9.30;;;17.60;99.90;;;;;;5078983;28;20028;-74
2023/06/06 05:21:48;;;;;;;13.38;9.07;;;17.90;99.90;;;;;;5057373;28;20116;-73
2023/06/06 05:24:14;;;;;;;14.70;8.77;;;18.30;99.90;;;;;;5086289;28;20036;-74
2023/06/06 05:26:41;;;;;;;15.10;8.32;;;18.60;99.90;;;;;;5080845;28;20052;-74
2023/06/06 05:29:07;;;;;;;11.10;7.60;;;18.80;99.90;;;;;;5083802;28;20047;-74
2023/06/06 05:31:33;;;;;;;10.95;8.40;;;19.30;99.90;;;;;;5086397;28;20032;-75
2023/06/06 05:33:59;;;;;;;;;;;20.10;99.90;;;;;;5083409;28;20032;-74
2023/06/06 05:36:25;;;;;;;11.57;7.88;;;20.60;99.90;;;;;;5083370;28;20414;-74
2023/06/06 05:38:50;;;;;;;15.03;7.57;;;21.10;99.90;;;;;;5077270;28;20055;-74
2023/06/06 05:41:18;;;;;;;14.77;8.10;;;21.50;99.90;;;;;;5087843;28;20015;-74
2023/06/06 05:43:50;;;;;;;11.52;7.60;;;21.80;99.90;;;;;;5084691;28;20062;-73
2023/06/06 05:46:16;;;;;;;11.88;7.55;;;22.40;99.90;;;;;;5079762;28;20030;-75
2023/06/06 05:48:42;;;;;;;15.25;7.18;;;22.80;99.90;;;;;;5080410;28;20032;-75
2023/06/06 05:51:08;;;;;;;25.13;10.02;;;22.90;99.90;;;;;;5087696;28;20536;-78
2023/06/06 05:53:34;;;;;;;9.57;6.80;;;23.40;99.90;;;;;;5082570;28;20020;-75
2023/06/06 05:56:00;;;;;;;9.80;7.05;;;23.50;99.90;;;;;;5079818;28;20035;-73
2023/06/06 05:58:25;;;;;;;15.38;7.15;;;23.80;99.90;;;;;;5082262;28;20403;-77
2023/06/06 06:00:51;;;;;;;8.85;6.53;;;24.20;99.90;;;;;;5086637;28;20032;-78
2023/06/06 06:03:17;;;;;;;7.70;6.88;;;24.40;99.90;;;;;;5080985;28;20032;-77
2023/06/06 06:05:43;;;;;;;9.10;7.07;;;24.90;99.90;;;;;;5076049;28;20074;-77
2023/06/06 06:08:09;;;;;;;;;;;24.80;99.90;;;;;;5080224;28;20050;-75
2023/06/06 06:10:36;;;;;;;10.95;6.50;;;25.00;99.90;;;;;;5079591;28;19920;-78
2023/06/06 06:13:03;;;;;;;10.13;6.45;;;25.40;99.90;;;;;;5074132;28;20029;-78
2023/06/06 06:15:33;;;;;;;8.57;6.65;;;26.10;99.90;;;;;;5081344;28;20046;-74
2023/06/06 06:18:00;;;;;;;14.80;5.88;;;26.70;99.90;;;;;;5078281;28;20514;-75
2023/06/06 06:20:25;;;;;;;;;;;27.00;99.90;;;;;;5076803;28;20864;-76
2023/06/06 06:22:51;;;;;;;17.55;6.10;;;27.20;99.90;;;;;;5077943;28;19920;-75
2023/06/06 06:25:17;;;;;;;11.15;6.35;;;27.50;99.60;;;;;;5084297;28;20483;-77
2023/06/06 06:27:46;;;;;;;15.38;7.18;;;27.70;99.90;;;;;;5076436;28;20041;-77
2023/06/06 06:30:13;;;;;;;21.00;7.22;;;27.90;98.60;;;;;;5078731;28;20097;-75
2023/06/06 06:32:40;;;;;;;22.70;7.35;;;28.00;98.20;;;;;;5078460;28;20496;-76
2023/06/06 06:35:06;;;;;;;20.55;7.43;;;28.40;98.10;;;;;;5082976;28;20445;-75
2023/06/06 06:37:36;;;;;;;19.00;6.40;;;28.70;96.40;;;;;;5090675;28;20081;-78
2023/06/06 06:40:05;;;;;;;8.82;5.95;;;28.10;98.00;;;;;;5087428;28;20036;-77
2023/06/06 06:42:30;;;;;;;9.98;6.45;;;26.60;99.90;;;;;;5089603;28;20117;-76
2023/06/06 06:44:56;;;;;;;13.48;7.78;;;26.10;99.90;;;;;;5083400;28;20419;-77
2023/06/06 06:47:21;;;;;;;22.00;8.07;;;25.70;99.90;;;;;;5083023;28;20059;-76
2023/06/06 06:49:48;;;;;;;7.72;6.18;;;25.30;99.90;;;;;;5063434;28;20037;-77
2023/06/06 06:52:17;;;;;;;9.20;6.38;;;26.10;99.90;;;;;;5084192;28;20028;-74
2023/06/06 06:54:58;;;;;;;10.52;6.30;;;27.60;99.90;;;;;;5083006;28;20053;-77
2023/06/06 06:57:26;;;;;;;11.02;6.45;;;28.20;98.60;;;;;;5079680;28;20020;-77
2023/06/06 06:59:53;;;;;;;45.58;9.80;;;28.70;97.00;;;;;;5086527;28;20078;-77
2023/06/06 07:02:19;;;;;;;35.08;9.18;;;27.90;99.90;;;;;;5083683;28;20539;-77
2023/06/06 07:04:47;;;;;;;10.65;6.43;;;27.00;99.90;;;;;;5083465;28;20448;-76
2023/06/06 07:07:15;;;;;;;11.35;6.60;;;26.70;99.90;;;;;;5080584;28;20373;-76
2023/06/06 07:09:40;;;;;;;8.50;6.40;;;26.60;99.90;;;;;;5079434;28;20050;-75
2023/06/06 07:12:07;;;;;;;17.77;7.13;;;26.10;99.90;;;;;;5078857;28;20496;-76
2023/06/06 07:14:33;;;;;;;12.88;6.85;;;26.00;99.90;;;;;;5079977;28;20028;-76
2023/06/06 07:16:59;;;;;;;11.45;6.68;;;25.70;99.90;;;;;;5082780;28;20043;-75
2023/06/06 07:19:26;;;;;;;12.32;6.28;;;25.40;99.90;;;;;;5062933;28;20034;-75
2023/06/06 07:21:52;;;;;;;18.08;6.65;;;25.20;99.90;;;;;;5080534;28;20107;-76
2023/06/06 07:24:20;;;;;;;11.55;7.05;;;25.30;99.90;;;;;;5088565;28;20032;-76
2023/06/06 07:26:45;;;;;;;12.52;6.50;;;24.60;99.90;;;;;;5077096;28;20025;-75
2023/06/06 07:29:11;;;;;;;9.00;7.18;;;24.60;99.90;;;;;;5098069;28;20441;-72
2023/06/06 07:31:38;;;;;;;7.45;6.20;;;24.60;99.90;;;;;;5083906;28;20088;-75
2023/06/06 07:34:04;;;;;;;11.13;6.60;;;24.80;99.90;;;;;;5062795;28;20073;-74
2023/06/06 07:36:30;;;;;;;7.57;5.63;;;24.90;99.90;;;;;;5086733;28;20089;-75
2023/06/06 07:38:57;;;;;;;10.55;5.82;;;25.00;99.90;;;;;;5073109;28;20450;-77
2023/06/06 07:41:23;;;;;;;49.28;9.77;;;24.70;99.90;;;;;;5076484;28;20506;-74
2023/06/06 07:43:49;;;;;;;;;;;24.60;99.90;;;;;;5077287;28;20404;-74
2023/06/06 07:46:14;;;;;;;10.93;6.82;;;24.70;99.90;;;;;;5084833;28;19911;-74
2023/06/06 07:48:40;;;;;;;8.18;6.65;;;24.00;99.90;;;;;;5077646;28;20028;-74
2023/06/06 07:51:07;;;;;;;9.07;6.82;;;24.20;99.90;;;;;;5080621;28;20082;-73
2023/06/06 07:53:32;;;;;;;;;;;24.30;99.90;;;;;;5080466;28;20032;-75
2023/06/06 07:55:58;;;;;;;12.00;7.22;;;24.40;99.90;;;;;;5082026;28;19908;-74
2023/06/06 07:58:26;;;;;;;10.23;7.00;;;24.40;99.90;;;;;;5079640;28;20530;-76
2023/06/06 08:00:52;;;;;;;11.02;7.00;;;24.50;99.90;;;;;;5080132;28;20285;-75
2023/06/06 08:03:17;;;;;;;15.48;7.47;;;24.30;99.90;;;;;;5079511;28;20079;-75
2023/06/06 08:05:43;;;;;;;10.45;6.22;;;24.20;99.90;;;;;;5087614;28;20038;-74
2023/06/06 08:08:08;;;;;;;9.83;7.00;;;24.40;99.90;;;;;;5086071;28;20466;-76
2023/06/06 08:10:34;;;;;;;13.32;7.45;;;24.60;99.90;;;;;;5080064;28;20083;-75
2023/06/06 08:13:00;;;;;;;15.45;7.13;;;24.70;99.90;;;;;;5083037;28;20067;-76
2023/06/06 08:15:26;;;;;;;13.30;7.80;;;25.60;99.90;;;;;;5077812;28;20024;-77
2023/06/06 08:17:52;;;;;;;13.55;6.85;;;24.80;99.90;;;;;;5079558;28;20574;-76
2023/06/06 08:20:17;;;;;;;12.77;6.43;;;24.30;99.90;;;;;;5076716;28;20070;-76
2023/06/06 08:22:50;;;;;;;12.37;6.63;;;24.60;99.90;;;;;;5077940;28;20400;-75
2023/06/06 08:25:16;;;;;;;8.60;6.18;;;25.60;99.90;;;;;;5082323;28;20334;-76
2023/06/06 08:27:42;;;;;;;9.45;6.45;;;27.00;99.90;;;;;;5091095;28;20027;-76
2023/06/06 08:30:08;;;;;;;16.20;7.30;;;27.50;99.70;;;;;;5080539;28;20048;-76
2023/06/06 08:32:37;;;;;;;7.07;5.50;;;27.60;98.80;;;;;;5083998;28;20060;-76
2023/06/06 08:35:03;;;;;;;8.38;6.10;;;27.50;99.40;;;;;;5086649;28;20037;-76
2023/06/06 08:37:29;;;;;;;10.43;6.45;;;28.30;97.90;;;;;;5083091;28;20082;-76
2023/06/06 08:39:54;;;;;;;6.50;5.00;;;29.70;94.30;;;;;;5080956;28;20035;-76
2023/06/06 08:42:22;;;;;;;13.85;6.00;;;29.60;95.50;;;;;;5086057;28;20028;-76
2023/06/06 08:44:49;;;;;;;14.98;5.88;;;29.20;93.60;;;;;;5075643;28;20140;-76
2023/06/06 08:47:15;;;;;;;11.25;5.72;;;28.50;96.20;;;;;;5085342;28;20036;-76
2023/06/06 08:49:41;;;;;;;8.85;5.40;;;27.90;97.70;;;;;;5091270;28;20551;-75
2023/06/06 08:52:08;;;;;;;9.98;5.45;;;27.70;98.60;;;;;;5087410;28;20046;-75
2023/06/06 08:54:35;;;;;;;12.75;5.78;;;27.30;99.40;;;;;;5078693;28;20039;-75
2023/06/06 08:57:08;;;;;;;9.05;5.30;;;28.00;97.20;;;;;;5077651;28;20017;-75
2023/06/06 08:59:39;;;;;;;7.22;5.35;;;29.60;94.30;;;;;;5076373;28;20062;-76
2023/06/06 09:02:06;;;;;;;7.25;4.80;;;32.00;86.20;;;;;;5080118;28;20032;-76
2023/06/06 09:04:33;;;;;;;6.93;4.65;;;33.30;77.10;;;;;;5083075;28;20115;-76
2023/06/06 09:07:04;;;;;;;6.75;4.90;;;33.10;73.20;;;;;;5069037;28;20024;-76
2023/06/06 09:09:33;;;;;;;7.97;4.78;;;33.60;67.60;;;;;;5080350;28;20040;-76
2023/06/06 09:11:59;;;;;;;6.18;4.70;;;34.00;71.80;;;;;;5090328;28;20033;-76
2023/06/06 09:14:25;;;;;;;5.13;4.65;;;34.50;70.10;;;;;;5064404;28;20109;-76
2023/06/06 09:16:53;;;;;;;10.65;4.63;;;35.00;65.50;;;;;;5075848;28;20060;-76
2023/06/06 09:19:30;;;;;;;7.40;4.80;;;35.00;65.80;;;;;;5081057;28;20028;-74
2023/06/06 09:21:59;;;;;;;9.23;3.97;;;35.50;63.90;;;;;;5086484;28;20083;-74
2023/06/06 09:24:25;;;;;;;8.02;4.32;;;35.40;61.80;;;;;;5084404;28;20046;-74
2023/06/06 09:26:50;;;;;;;6.57;4.25;;;35.50;60.00;;;;;;5079234;28;20039;-78
2023/06/06 09:29:16;;;;;;;6.80;4.70;;;34.40;60.80;;;;;;5086088;28;20050;-76
2023/06/06 09:31:42;;;;;;;4.90;4.40;;;35.20;62.40;;;;;;5084459;28;20040;-75
2023/06/06 09:34:10;;;;;;;6.18;4.18;;;36.10;62.30;;;;;;5079939;28;20056;-76
2023/06/06 09:36:41;;;;;;;7.65;4.65;;;35.60;63.30;;;;;;5078627;28;20032;-75
2023/06/06 09:39:10;;;;;;;6.60;5.32;;;35.50;58.90;;;;;;5070388;28;20071;-76
2023/06/06 09:41:45;;;;;;;8.13;4.60;;;35.10;57.50;;;;;;5095611;28;20060;-78
2023/06/06 09:44:25;;;;;;;7.83;4.83;;;35.30;60.90;;;;;;5084367;28;20101;-76
2023/06/06 09:47:03;;;;;;;6.20;5.05;;;34.90;61.10;;;;;;5077966;28;20325;-79
2023/06/06 09:49:33;;;;;;;6.68;4.75;;;34.80;63.00;;;;;;5077530;28;20043;-78
2023/06/06 09:51:58;;;;;;;6.70;4.32;;;34.40;62.70;;;;;;5083102;28;20035;-78
2023/06/06 09:54:24;;;;;;;6.03;4.43;;;33.80;65.60;;;;;;5075760;28;20024;-79
2023/06/06 09:56:51;;;;;;;7.85;4.78;;;33.40;65.40;;;;;;5081711;28;20031;-78
2023/06/06 09:59:20;;;;;;;7.88;4.63;;;32.90;71.40;;;;;;5080111;28;20030;-77
2023/06/06 10:01:51;;;;;;;8.60;4.97;;;32.90;74.60;;;;;;5080217;28;20043;-81
2023/06/06 10:04:17;;;;;;;8.63;4.50;;;32.70;71.80;;;;;;5083684;28;20084;-79
2023/06/06 10:06:46;;;;;;;14.57;5.45;;;32.50;75.80;;;;;;5087921;28;20059;-85
2023/06/06 10:09:12;;;;;;;9.10;4.65;;;32.50;66.60;;;;;;5101402;28;20057;-79
2023/06/06 10:11:39;;;;;;;9.90;5.28;;;32.00;72.50;;;;;;5086562;28;20130;-75
2023/06/06 10:14:05;;;;;;;7.63;4.68;;;32.10;75.10;;;;;;5088624;28;20565;-78
2023/06/06 10:16:34;;;;;;;6.68;4.93;;;31.80;78.50;;;;;;5085361;28;20032;-75
2023/06/06 10:19:00;;;;;;;8.00;4.93;;;31.30;77.30;;;;;;5089408;28;20032;-74
2023/06/06 10:21:28;;;;;;;4.95;4.45;;;30.20;87.50;;;;;;5086250;28;20020;-76
2023/06/06 10:23:54;;;;;;;8.07;4.80;;;29.80;90.10;;;;;;5083740;28;20020;-75
2023/06/06 10:26:29;;;;;;;7.72;5.05;;;29.40;92.60;;;;;;5077499;28;20034;-75
2023/06/06 10:29:20;;;;;;;6.78;5.53;;;29.30;90.80;;;;;;5085093;28;20036;-75
2023/06/06 10:31:56;;;;;;;8.38;5.13;;;29.30;95.40;;;;;;5088687;28;20773;-75
2023/06/06 10:34:29;;;;;;;8.00;5.13;;;29.10;92.10;;;;;;5075417;28;20044;-75
2023/06/06 10:36:56;;;;;;;7.45;5.18;;;28.90;92.00;;;;;;5081370;28;20031;-75
2023/06/06 10:39:29;;;;;;;5.50;4.90;;;29.00;95.70;;;;;;5079667;28;20089;-73
2023/06/06 10:41:58;;;;;;;5.72;4.82;;;28.90;90.70;;;;;;5080474;28;20036;-75
2023/06/06 10:44:36;;;;;;;8.98;5.15;;;29.00;95.60;;;;;;5062828;28;20093;-74
2023/06/06 10:47:30;;;;;;;8.95;5.63;;;29.00;92.50;;;;;;5087827;28;20093;-74
2023/06/06 10:50:13;;;;;;;9.10;5.72;;;28.90;94.10;;;;;;5061785;28;20507;-74
2023/06/06 10:52:56;;;;;;;10.10;5.07;;;29.10;93.80;;;;;;5078880;28;20028;-74
2023/06/06 10:55:24;;;;;;;7.75;5.30;;;28.90;95.10;;;;;;5081110;28;20040;-74
2023/06/06 10:57:55;;;;;;;10.63;6.85;;;28.90;89.60;;;;;;5096392;28;20024;-74
2023/06/06 11:00:25;;;;;;;6.00;4.93;;;28.70;84.00;;;;;;5075043;28;20059;-75
2023/06/06 11:02:58;;;;;;;8.65;5.78;;;28.80;94.10;;;;;;5078019;28;20035;-75
2023/06/06 11:05:24;;;;;;;6.18;5.32;;;28.70;92.60;;;;;;5084487;28;20024;-73
2023/06/06 11:07:54;;;;;;;10.95;5.60;;;28.80;96.40;;;;;;5085639;28;20750;-75
2023/06/06 11:10:22;;;;;;;6.53;4.63;;;29.00;96.00;;;;;;5083327;28;20578;-75
2023/06/06 11:12:49;;;;;;;7.15;5.55;;;28.90;92.00;;;;;;5076480;28;20562;-74
2023/06/06 11:15:27;;;;;;;8.73;5.38;;;28.60;95.40;;;;;;5087315;28;20032;-76
2023/06/06 11:18:00;;;;;;;10.68;5.40;;;28.60;92.80;;;;;;5079401;28;20016;-74
2023/06/06 11:20:27;;;;;;;7.47;4.80;;;28.90;94.70;;;;;;5079909;28;20579;-76
2023/06/06 11:23:05;;;;;;;6.43;5.63;;;29.00;96.50;;;;;;5082379;28;20526;-75
2023/06/06 11:25:34;;;;;;;7.30;5.45;;;28.80;84.00;;;;;;5088059;28;20580;-75
2023/06/06 11:28:01;;;;;;;9.43;5.72;;;28.60;90.90;;;;;;5077965;28;20040;-75
2023/06/06 11:30:31;;;;;;;13.00;5.82;;;28.70;96.30;;;;;;5083844;28;20032;-76
2023/06/06 11:32:58;;;;;;;6.28;5.35;;;28.40;89.80;;;;;;5080308;28;20547;-75
2023/06/06 11:35:24;;;;;;;9.98;5.70;;;28.40;89.80;;;;;;5082759;28;20051;-74
2023/06/06 11:37:50;;;;;;;12.55;6.18;;;28.60;90.00;;;;;;5077297;28;20032;-74
2023/06/06 11:40:16;;;;;;;9.50;4.85;;;28.70;92.20;;;;;;5081201;28;20134;-75
2023/06/06 11:42:43;;;;;;;7.05;5.25;;;28.70;81.40;;;;;;5080727;28;20838;-74
2023/06/06 11:45:16;;;;;;;9.60;5.32;;;28.50;86.80;;;;;;5080058;28;20040;-75
2023/06/06 11:47:45;;;;;;;6.57;5.43;;;28.50;87.30;;;;;;5081492;28;20518;-74
2023/06/06 11:50:12;;;;;;;9.75;5.90;;;28.40;87.30;;;;;;5077461;28;20063;-76
2023/06/06 11:52:46;;;;;;;15.93;6.45;;;28.60;91.90;;;;;;5074203;28;20457;-74
2023/06/06 11:55:12;;;;;;;8.38;5.57;;;28.90;92.00;;;;;;5081429;28;20097;-74
2023/06/06 11:57:37;;;;;;;10.00;5.53;;;28.70;84.40;;;;;;5079351;28;20500;-75
2023/06/06 12:00:16;;;;;;;8.73;5.85;;;28.50;92.60;;;;;;5082379;28;20393;-74
2023/06/06 12:02:45;;;;;;;8.77;5.90;;;28.70;90.60;;;;;;5081180;28;20024;-78
2023/06/06 12:05:22;;;;;;;11.65;5.35;;;28.50;91.80;;;;;;5085368;28;20107;-74
2023/06/06 12:07:51;;;;;;;6.00;4.85;;;28.50;85.70;;;;;;5081290;28;20035;-74
2023/06/06 12:10:31;;;;;;;10.00;5.53;;;28.60;91.70;;;;;;5081486;28;20117;-75
2023/06/06 12:12:57;;;;;;;6.82;5.43;;;28.80;72.50;;;;;;5083324;28;20384;-75
2023/06/06 12:15:27;;;;;;;;;;;28.60;81.80;;;;;;5080730;28;20130;-74
2023/06/06 12:18:00;;;;;;;7.57;5.72;;;28.70;82.80;;;;;;5077466;28;20023;-76
2023/06/06 12:20:25;;;;;;;6.88;5.50;;;28.70;79.10;;;;;;5077996;28;20031;-73
2023/06/06 12:22:52;;;;;;;6.57;5.35;;;28.80;83.90;;;;;;5080055;28;20032;-76
2023/06/06 12:25:28;;;;;;;6.88;5.45;;;28.60;68.30;;;;;;5074605;28;20040;-75
2023/06/06 12:28:15;;;;;;;7.18;5.53;;;28.50;81.70;;;;;;5073325;28;20508;-78
2023/06/06 12:30:44;;;;;;;9.68;4.70;;;28.60;77.90;;;;;;5050935;28;20131;-73
2023/06/06 12:33:10;;;;;;;9.30;6.00;;;28.90;81.70;;;;;;5074931;28;20428;-74
2023/06/06 12:35:36;;;;;;;7.20;5.03;;;28.90;84.70;;;;;;5080683;28;20103;-77
2023/06/06 12:38:01;;;;;;;6.93;4.47;;;28.60;79.70;;;;;;5080453;28;20131;-78
2023/06/06 12:40:33;;;;;;;7.80;5.00;;;28.70;82.90;;;;;;5081345;28;20106;-75
2023/06/06 12:43:00;;;;;;;5.72;4.80;;;28.90;79.40;;;;;;5072967;28;20047;-75
2023/06/06 12:45:28;;;;;;;9.35;5.90;;;29.00;73.60;;;;;;5078798;28;20085;-76
2023/06/06 12:47:55;;;;;;;9.45;5.18;;;29.00;66.70;;;;;;5075244;28;20059;-76